Time;durP1;ratioP1;P1;durP2;ratioP2;P2;SDS_P1;SDS_P2;PMS_P1;PMS_P2;Temp;Humidity;BMP_temperature;BMP_pressure;BME280_temperature;BME280_humidity;BME280_pressure;Samples;Min_cycle;Max_cycle;Signal;HPM_P1;HPM_P2
2020/12/27 00:01:30;;;;;;;;;;;6.90;92.40;;;;;;5041132;28;19935;-69
2020/12/27 00:03:56;;;;;;;;;;;6.90;92.30;;;;;;5046965;28;20367;-69
2020/12/27 00:06:25;;;;;;;;;;;6.80;92.20;;;;;;5043267;28;20309;-69
2020/12/27 00:08:51;;;;;;;;;;;6.80;92.40;;;;;;5046068;28;19925;-69
2020/12/27 00:11:17;;;;;;;;;;;6.80;92.40;;;;;;5042300;28;19941;-70
2020/12/27 00:13:44;;;;;;;;;;;6.90;92.50;;;;;;5050633;28;19974;-69
2020/12/27 00:16:10;;;;;;;;;;;6.90;92.20;;;;;;5039765;28;19928;-69
2020/12/27 00:18:37;;;;;;;;;;;6.90;92.30;;;;;;5047413;28;20372;-70
2020/12/27 00:21:03;;;;;;;;;;;6.90;92.30;;;;;;5045439;28;19925;-71
2020/12/27 00:23:29;;;;;;;;;;;6.80;92.10;;;;;;5043615;28;19924;-70
2020/12/27 00:25:55;;;;;;;;;;;6.80;92.20;;;;;;5051123;28;19929;-70
2020/12/27 00:28:22;;;;;;;;;;;6.80;92.20;;;;;;5048511;28;19929;-70
2020/12/27 00:30:48;;;;;;;;;;;6.80;92.30;;;;;;5051252;28;19952;-70
2020/12/27 00:33:14;;;;;;;;;;;6.80;92.10;;;;;;5042690;28;19925;-70
2020/12/27 00:35:41;;;;;;;;;;;6.80;92.20;;;;;;5052687;28;20262;-70
2020/12/27 00:38:07;;;;;;;;;;;6.80;92.10;;;;;;5051956;28;19929;-69
2020/12/27 00:40:33;;;;;;;;;;;6.70;92.00;;;;;;5051099;28;19925;-69
2020/12/27 00:43:00;;;;;;;;;;;6.80;92.10;;;;;;5052464;28;19935;-70
2020/12/27 00:45:26;;;;;;;;;;;6.80;92.10;;;;;;5050830;28;20267;-69
2020/12/27 00:47:52;;;;;;;;;;;6.70;91.90;;;;;;5040060;28;19925;-70
2020/12/27 00:50:18;;;;;;;;;;;6.70;92.10;;;;;;5047902;28;19931;-69
2020/12/27 00:52:46;;;;;;;;;;;6.80;92.10;;;;;;5044162;28;19935;-69
2020/12/27 00:55:15;;;;;;;;;;;6.70;92.00;;;;;;5045372;28;20354;-70
2020/12/27 00:57:41;;;;;;;;;;;6.70;92.00;;;;;;5047315;28;19979;-70
2020/12/27 01:00:07;;;;;;;;;;;6.80;92.20;;;;;;5049865;28;20312;-70
2020/12/27 01:02:33;;;;;;;;;;;6.70;91.90;;;;;;5050004;28;19935;-70
2020/12/27 01:04:59;;;;;;;;;;;6.70;92.20;;;;;;5052248;28;19924;-70
2020/12/27 01:07:26;;;;;;;;;;;6.60;91.80;;;;;;5047600;28;20282;-70
2020/12/27 01:09:53;;;;;;;;;;;6.70;92.00;;;;;;5052177;28;19925;-70
2020/12/27 01:12:19;;;;;;;;;;;6.70;92.10;;;;;;5041771;28;19925;-70
2020/12/27 01:14:45;;;;;;;;;;;6.70;91.90;;;;;;5048183;28;19932;-70
2020/12/27 01:17:11;;;;;;;;;;;6.70;91.80;;;;;;5050600;28;19978;-69
2020/12/27 01:19:37;;;;;;;;;;;6.60;91.90;;;;;;5045134;28;19924;-69
2020/12/27 01:22:04;;;;;;;;;;;6.60;91.90;;;;;;5054874;28;20355;-70
2020/12/27 01:24:30;;;;;;;;;;;6.60;91.80;;;;;;5043970;28;19939;-70
2020/12/27 01:26:57;;;;;;;;;;;6.60;91.70;;;;;;5049873;28;19929;-70
2020/12/27 01:29:23;;;;;;;;;;;6.70;91.90;;;;;;5055768;28;19925;-70
2020/12/27 01:31:49;;;;;;;;;;;6.60;91.60;;;;;;5045789;28;19947;-70
2020/12/27 01:34:16;;;;;;;;;;;6.60;91.70;;;;;;5058863;28;19924;-70
2020/12/27 01:36:42;;;;;;;;;;;6.70;91.70;;;;;;5042128;28;20324;-70
2020/12/27 01:39:09;;;;;;;;;;;6.70;91.70;;;;;;5052964;28;19928;-70
2020/12/27 01:41:36;;;;;;;;;;;6.70;91.60;;;;;;5044821;28;19955;-70
2020/12/27 01:44:04;;;;;;;;;;;6.70;91.50;;;;;;5055480;28;19925;-70
2020/12/27 01:46:30;;;;;;;;;;;6.70;91.70;;;;;;5045064;28;20021;-70
2020/12/27 01:48:57;;;;;;;;;;;6.70;91.40;;;;;;5048671;28;20351;-70
2020/12/27 01:51:23;;;;;;;;;;;6.60;91.40;;;;;;5054774;28;19925;-70
2020/12/27 01:53:49;;;;;;;;;;;6.60;91.40;;;;;;5041992;28;19925;-70
2020/12/27 01:56:17;;;;;;;;;;;6.70;91.50;;;;;;5050671;28;19929;-70
2020/12/27 01:58:45;;;;;;;;;;;6.70;91.40;;;;;;5054471;28;19925;-70
2020/12/27 02:01:12;;;;;;;;;;;6.70;91.40;;;;;;5055362;28;19924;-70
2020/12/27 02:03:40;;;;;;;;;;;6.70;91.10;;;;;;5041368;28;20712;-70
2020/12/27 02:06:06;;;;;;;;;;;6.70;91.40;;;;;;5041839;28;19979;-70
2020/12/27 02:08:32;;;;;;;;;;;6.70;91.30;;;;;;5043891;28;20369;-70
2020/12/27 02:10:59;;;;;;;;;;;6.70;91.30;;;;;;5043229;28;19926;-70
2020/12/27 02:13:25;;;;;;;;;;;6.60;91.20;;;;;;5042389;28;19940;-70
2020/12/27 02:15:51;;;;;;;;;;;6.70;91.40;;;;;;5044343;28;20357;-70
2020/12/27 02:18:18;;;;;;;;;;;6.70;91.20;;;;;;5042762;28;20282;-70
2020/12/27 02:20:45;;;;;;;;;;;6.70;91.30;;;;;;5043116;28;19925;-70
2020/12/27 02:23:13;;;;;;;;;;;6.70;91.10;;;;;;5042868;28;19936;-70
2020/12/27 02:25:40;;;;;;;;;;;6.70;91.20;;;;;;5042250;28;19948;-70
2020/12/27 02:28:06;;;;;;;;;;;6.60;90.90;;;;;;5043035;28;19932;-70
2020/12/27 02:30:33;;;;;;;;;;;6.60;91.00;;;;;;5042705;28;20525;-70
2020/12/27 02:32:59;;;;;;;;;;;6.60;91.10;;;;;;5042483;28;19925;-70
2020/12/27 02:35:25;;;;;;;;;;;6.60;91.20;;;;;;5042820;28;19939;-70
2020/12/27 02:37:52;;;;;;;;;;;6.60;91.30;;;;;;5042907;28;19958;-70
2020/12/27 02:40:18;;;;;;;;;;;6.70;91.30;;;;;;5041816;28;19929;-70
2020/12/27 02:42:45;;;;;;;;;;;6.70;91.30;;;;;;5043281;28;19943;-70
2020/12/27 02:45:11;;;;;;;;;;;6.70;91.10;;;;;;5042737;28;19933;-70
2020/12/27 02:47:38;;;;;;;;;;;6.70;91.00;;;;;;5041494;28;19937;-70
2020/12/27 02:50:09;;;;;;;;;;;6.70;91.00;;;;;;5043363;28;20024;-70
2020/12/27 02:52:35;;;;;;;;;;;6.70;90.80;;;;;;5053915;28;19978;-70
2020/12/27 02:55:01;;;;;;;;;;;6.70;90.90;;;;;;5040705;28;19933;-70
2020/12/27 02:57:27;;;;;;;;;;;6.60;90.90;;;;;;5053733;28;19999;-68
2020/12/27 02:59:54;;;;;;;;;;;6.60;90.90;;;;;;5043803;28;19925;-70
2020/12/27 03:02:21;;;;;;;;;;;6.60;90.80;;;;;;5044926;28;20325;-70
2020/12/27 03:04:47;;;;;;;;;;;6.60;90.80;;;;;;5051776;28;19925;-70
2020/12/27 03:07:13;;;;;;;;;;;6.60;90.90;;;;;;5044839;28;19929;-70
2020/12/27 03:09:39;;;;;;;;;;;6.50;90.90;;;;;;5049446;28;19925;-70
2020/12/27 03:12:06;;;;;;;;;;;6.50;90.80;;;;;;5045160;28;19935;-69
2020/12/27 03:14:32;;;;;;;;;;;6.50;90.70;;;;;;5048461;28;20275;-69
2020/12/27 03:16:59;;;;;;;;;;;6.50;90.80;;;;;;5053836;28;19925;-69
2020/12/27 03:19:25;;;;;;;;;;;6.40;90.50;;;;;;5039697;28;20012;-69
2020/12/27 03:21:51;;;;;;;;;;;6.40;90.70;;;;;;5044656;28;19936;-69
2020/12/27 03:24:17;;;;;;;;;;;6.40;90.80;;;;;;5047356;28;19936;-70
2020/12/27 03:26:44;;;;;;;;;;;6.40;90.70;;;;;;5042165;28;20344;-69
2020/12/27 03:29:10;;;;;;;;;;;6.40;90.70;;;;;;5041542;28;19933;-70
2020/12/27 03:31:36;;;;;;;;;;;6.40;90.60;;;;;;5063887;28;19935;-69
2020/12/27 03:34:03;;;;;;;;;;;6.30;90.70;;;;;;5048346;28;19933;-69
2020/12/27 03:36:29;;;;;;;;;;;6.30;90.80;;;;;;5043584;28;19947;-69
2020/12/27 03:38:55;;;;;;;;;;;6.40;90.60;;;;;;5049131;28;20393;-69
2020/12/27 03:41:22;;;;;;;;;;;6.40;90.60;;;;;;5045585;28;19936;-69
2020/12/27 03:43:48;;;;;;;;;;;6.40;90.60;;;;;;5046747;28;19928;-70
2020/12/27 03:46:14;;;;;;;;;;;6.40;90.60;;;;;;5048092;28;19943;-69
2020/12/27 03:48:40;;;;;;;;;;;6.40;90.70;;;;;;5051911;28;19925;-69
2020/12/27 03:51:07;;;;;;;;;;;6.50;90.40;;;;;;5040952;28;19986;-69
2020/12/27 03:53:33;;;;;;;;;;;6.50;90.30;;;;;;5039291;28;19990;-69
2020/12/27 03:56:00;;;;;;;;;;;6.50;90.30;;;;;;5045755;28;20000;-69
2020/12/27 03:58:26;;;;;;;;;;;6.40;90.10;;;;;;5040677;28;19925;-69
2020/12/27 04:00:52;;;;;;;;;;;6.40;90.20;;;;;;5035766;28;19951;-69
2020/12/27 04:03:18;;;;;;;;;;;6.40;90.20;;;;;;5049785;28;19925;-69
2020/12/27 04:05:44;;;;;;;;;;;6.30;90.20;;;;;;5044157;28;20016;-69
2020/12/27 04:08:12;;;;;;;;;;;6.30;90.30;;;;;;5049577;28;19925;-69
2020/12/27 04:10:38;;;;;;;;;;;6.30;90.30;;;;;;5037355;28;19929;-69
2020/12/27 04:13:04;;;;;;;;;;;6.40;90.30;;;;;;5046189;28;20356;-69
2020/12/27 04:15:30;;;;;;;;;;;6.30;90.30;;;;;;5042867;28;19924;-69
2020/12/27 04:17:56;;;;;;;;;;;6.20;90.20;;;;;;5039517;28;19935;-69
2020/12/27 04:20:23;;;;;;;;;;;6.20;90.40;;;;;;5052350;28;19935;-69
2020/12/27 04:22:50;;;;;;;;;;;6.20;90.40;;;;;;5048386;28;20024;-69
2020/12/27 04:25:17;;;;;;;;;;;6.30;90.30;;;;;;5043599;28;19936;-69
2020/12/27 04:27:43;;;;;;;;;;;6.30;90.30;;;;;;5038891;28;20364;-69
2020/12/27 04:30:09;;;;;;;;;;;6.50;90.20;;;;;;5051076;28;19935;-69
2020/12/27 04:32:35;;;;;;;;;;;6.40;89.60;;;;;;5052104;28;20039;-69
2020/12/27 04:35:02;;;;;;;;;;;6.40;90.00;;;;;;5052687;28;19933;-69
2020/12/27 04:37:28;;;;;;;;;;;6.40;89.70;;;;;;5049575;28;19940;-69
2020/12/27 04:39:55;;;;;;;;;;;6.30;89.70;;;;;;5043806;28;19925;-69
2020/12/27 04:42:22;;;;;;;;;;;6.30;89.90;;;;;;5027066;28;19947;-69
2020/12/27 04:44:48;;;;;;;;;;;6.20;90.20;;;;;;5045950;28;20015;-69
2020/12/27 04:47:15;;;;;;;;;;;6.20;89.80;;;;;;5049539;28;19933;-69
2020/12/27 04:49:41;;;;;;;;;;;6.20;90.00;;;;;;5042556;28;19933;-69
2020/12/27 04:52:10;;;;;;;;;;;6.10;90.00;;;;;;5056830;28;19925;-69
2020/12/27 04:54:36;;;;;;;;;;;6.10;90.10;;;;;;5046045;28;20016;-69
2020/12/27 04:57:03;;;;;;;;;;;6.10;90.00;;;;;;5050061;28;20271;-69
2020/12/27 04:59:30;;;;;;;;;;;6.10;90.00;;;;;;5036500;28;19935;-69
2020/12/27 05:01:56;;;;;;;;;;;6.00;90.00;;;;;;5034996;28;19933;-69
2020/12/27 05:04:24;;;;;;;;;;;6.00;90.10;;;;;;5036215;28;20000;-69
2020/12/27 05:06:53;;;;;;;;;;;5.90;90.00;;;;;;5036177;28;19932;-69
2020/12/27 05:09:23;;;;;;;;;;;5.80;90.30;;;;;;5036835;28;19932;-70
2020/12/27 05:11:51;;;;;;;;;;;5.80;90.10;;;;;;5035748;28;19925;-69
2020/12/27 05:14:20;;;;;;;;;;;5.80;90.40;;;;;;5036632;28;19939;-69
2020/12/27 05:16:50;;;;;;;;;;;5.70;90.10;;;;;;5036007;28;19929;-69
2020/12/27 05:19:16;;;;;;;;;;;5.70;90.20;;;;;;5036336;28;20020;-69
2020/12/27 05:21:43;;;;;;;;;;;5.70;90.30;;;;;;5046232;28;19932;-69
2020/12/27 05:24:09;;;;;;;;;;;5.70;90.40;;;;;;5056403;28;20007;-69
2020/12/27 05:26:38;;;;;;;;;;;5.80;90.20;;;;;;5056192;28;19925;-69
2020/12/27 05:29:04;;;;;;;;;;;5.90;90.30;;;;;;5056543;28;20012;-69
2020/12/27 05:31:35;;;;;;;;;;;6.00;90.10;;;;;;5055604;28;19924;-70
2020/12/27 05:34:02;;;;;;;;;;;5.90;90.00;;;;;;5056513;28;19925;-69
2020/12/27 05:36:28;;;;;;;;;;;6.00;90.00;;;;;;5056250;28;19936;-69
2020/12/27 05:38:55;;;;;;;;;;;5.90;89.70;;;;;;5056102;28;19951;-69
2020/12/27 05:41:24;;;;;;;;;;;5.90;89.70;;;;;;5056329;28;19931;-69
2020/12/27 05:43:58;;;;;;;;;;;5.90;90.00;;;;;;5055744;28;19932;-69
2020/12/27 05:46:24;;;;;;;;;;;5.80;89.70;;;;;;5055880;28;19931;-69
2020/12/27 05:48:53;;;;;;;;;;;5.90;89.90;;;;;;5055870;28;19932;-69
2020/12/27 05:51:21;;;;;;;;;;;5.90;89.80;;;;;;5037790;28;19932;-69
2020/12/27 05:53:49;;;;;;;;;;;5.80;89.60;;;;;;5054583;28;20298;-69
2020/12/27 05:56:17;;;;;;;;;;;5.80;89.80;;;;;;5056143;28;19983;-69
2020/12/27 05:58:44;;;;;;;;;;;5.80;89.70;;;;;;5055500;28;19978;-69
2020/12/27 06:01:14;;;;;;;;;;;5.80;89.50;;;;;;5055190;28;19924;-69
2020/12/27 06:03:55;;;;;;;;;;;5.80;89.60;;;;;;5055654;28;20244;-69
2020/12/27 06:06:34;;;;;;;;;;;5.70;89.30;;;;;;5055761;28;19931;-69
2020/12/27 06:09:05;;;;;;;;;;;5.70;90.00;;;;;;5055549;28;19978;-69
2020/12/27 06:11:40;;;;;;;;;;;5.60;89.90;;;;;;5055735;28;19936;-69
2020/12/27 06:14:35;;;;;;;;;;;5.60;90.00;;;;;;5055454;28;20005;-69
2020/12/27 06:17:04;;;;;;;;;;;5.70;90.00;;;;;;5054943;28;19925;-70
2020/12/27 06:19:39;;;;;;;;;;;5.60;89.40;;;;;;5055393;28;19935;-70
2020/12/27 06:22:06;;;;;;;;;;;5.60;89.30;;;;;;5055185;28;19985;-70
2020/12/27 06:24:33;;;;;;;;;;;5.50;89.10;;;;;;5055391;28;19924;-70
2020/12/27 06:27:00;;;;;;;;;;;5.40;89.30;;;;;;5054874;28;19925;-70
2020/12/27 06:29:29;;;;;;;;;;;5.40;89.70;;;;;;5055519;28;19925;-70
2020/12/27 06:31:57;;;;;;;;;;;5.30;89.50;;;;;;5054776;28;19924;-70
2020/12/27 06:34:23;;;;;;;;;;;5.30;89.70;;;;;;5055224;28;19932;-70
2020/12/27 06:36:50;;;;;;;;;;;5.30;89.60;;;;;;5054824;28;20007;-70
2020/12/27 06:39:24;;;;;;;;;;;5.30;89.50;;;;;;5055108;28;20359;-70
2020/12/27 06:42:06;;;;;;;;;;;5.30;89.40;;;;;;5054591;28;19951;-70
2020/12/27 06:44:40;;;;;;;;;;;5.30;89.20;;;;;;5055151;28;19953;-70
2020/12/27 06:47:06;;;;;;;;;;;5.30;89.00;;;;;;5054553;28;19925;-70
2020/12/27 06:49:32;;;;;;;;;;;5.30;89.00;;;;;;5054831;28;20046;-70
2020/12/27 06:52:15;;;;;;;;;;;5.30;88.40;;;;;;5054450;28;19925;-70
2020/12/27 06:54:47;;;;;;;;;;;5.30;88.40;;;;;;5054903;28;20402;-70
2020/12/27 06:57:28;;;;;;;;;;;5.40;88.90;;;;;;5054623;28;20601;-70
2020/12/27 06:59:54;;;;;;;;;;;5.40;88.30;;;;;;5054390;28;19925;-70
2020/12/27 07:02:20;;;;;;;;;;;5.40;88.30;;;;;;5054778;28;19931;-70
2020/12/27 07:04:47;;;;;;;;;;;5.50;87.90;;;;;;5054575;28;19928;-70
2020/12/27 07:07:13;;;;;;;;;;;5.50;87.30;;;;;;5054204;28;19935;-70
2020/12/27 07:09:41;;;;;;;;;;;5.50;87.30;;;;;;5054678;28;19925;-70
2020/12/27 07:12:09;;;;;;;;;;;5.50;87.10;;;;;;5053672;28;20027;-70
2020/12/27 07:14:36;;;;;;;;;;;5.40;86.70;;;;;;5054007;28;20394;-70
2020/12/27 07:17:05;;;;;;;;;;;5.40;86.80;;;;;;5053712;28;19924;-70
2020/12/27 07:19:33;;;;;;;;;;;5.40;86.90;;;;;;5054012;28;19932;-70
2020/12/27 07:22:04;;;;;;;;;;;5.30;86.90;;;;;;5054114;28;19924;-69
2020/12/27 07:24:36;;;;;;;;;;;5.30;86.90;;;;;;5054322;28;20407;-70
2020/12/27 07:27:03;;;;;;;;;;;5.40;86.80;;;;;;5053903;28;20356;-70
2020/12/27 07:29:31;;;;;;;;;;;5.40;86.40;;;;;;5054420;28;19977;-70
2020/12/27 07:31:58;;;;;;;;;;;5.40;85.80;;;;;;5053635;28;19929;-70
2020/12/27 07:34:25;;;;;;;;;;;5.40;85.60;;;;;;5054131;28;19925;-70
2020/12/27 07:36:56;;;;;;;;;;;5.40;85.40;;;;;;5053499;28;19924;-70
2020/12/27 07:39:44;;;;;;;;;;;5.40;85.30;;;;;;5054056;28;19925;-70
2020/12/27 07:42:19;;;;;;;;;;;5.40;84.90;;;;;;5053478;28;20015;-70
2020/12/27 07:44:46;;;;;;;;;;;5.40;84.60;;;;;;5053785;28;20041;-70
2020/12/27 07:47:12;;;;;;;;;;;5.40;84.70;;;;;;5053398;28;19943;-70
2020/12/27 07:49:38;;;;;;;;;;;5.50;84.50;;;;;;5053478;28;19929;-70
2020/12/27 07:52:04;;;;;;;;;;;5.50;83.20;;;;;;5053487;28;19931;-70
2020/12/27 07:54:31;;;;;;;;;;;5.50;82.70;;;;;;5053745;28;19931;-70
2020/12/27 07:56:57;;;;;;;;;;;5.50;82.80;;;;;;5053247;28;19929;-70
2020/12/27 07:59:24;;;;;;;;;;;5.50;83.10;;;;;;5053824;28;19964;-70
2020/12/27 08:01:50;;;;;;;;;;;5.40;82.40;;;;;;5053466;28;19924;-70
2020/12/27 08:04:17;;;;;;;;;;;5.40;81.50;;;;;;5053152;28;19925;-70
2020/12/27 08:06:44;;;;;;;;;;;5.40;81.60;;;;;;5053386;28;19924;-70
2020/12/27 08:09:12;;;;;;;;;;;5.40;81.20;;;;;;5053196;28;19925;-69
2020/12/27 08:11:39;;;;;;;;;;;5.40;81.90;;;;;;5053528;28;19925;-70
2020/12/27 08:14:06;;;;;;;;;;;5.40;81.00;;;;;;5053104;28;19924;-69
2020/12/27 08:16:33;;;;;;;;;;;5.40;81.10;;;;;;5053151;28;19982;-69
2020/12/27 08:19:04;;;;;;;;;;;5.30;80.70;;;;;;5052700;28;19925;-69
2020/12/27 08:21:31;;;;;;;;;;;5.40;80.70;;;;;;5053378;28;20139;-69
2020/12/27 08:23:58;;;;;;;;;;;5.30;80.30;;;;;;5052716;28;20020;-69
2020/12/27 08:26:24;;;;;;;;;;;5.30;80.00;;;;;;5052897;28;20314;-69
2020/12/27 08:28:50;;;;;;;;;;;5.40;80.00;;;;;;5053415;28;19925;-69
2020/12/27 08:31:24;;;;;;;;;;;5.40;79.80;;;;;;5052660;28;19974;-69
2020/12/27 08:33:51;;;;;;;;;;;5.40;79.70;;;;;;5053166;28;20416;-69
2020/12/27 08:36:20;;;;;;;;;;;5.30;78.60;;;;;;5052681;28;19986;-68
2020/12/27 08:38:50;;;;;;;;;;;5.30;79.00;;;;;;5052945;28;19936;-69
2020/12/27 08:41:19;;;;;;;;;;;5.30;78.70;;;;;;5052568;28;20003;-69
2020/12/27 08:44:03;;;;;;;;;;;5.30;79.10;;;;;;5053018;28;19931;-69
2020/12/27 08:46:31;;;;;;;;;;;5.30;78.70;;;;;;5052687;28;20668;-69
2020/12/27 08:49:01;;;;;;;;;;;5.20;78.00;;;;;;5052902;28;19939;-69
2020/12/27 08:51:32;;;;;;;;;;;5.20;77.80;;;;;;5052378;28;19925;-69
2020/12/27 08:53:58;;;;;;;;;;;5.20;78.10;;;;;;5053131;28;19924;-69
2020/12/27 08:56:25;;;;;;;;;;;5.20;78.20;;;;;;5052262;28;19932;-69
2020/12/27 08:58:54;;;;;;;;;;;5.20;77.70;;;;;;5052795;28;19932;-69
2020/12/27 09:01:21;;;;;;;;;;;5.20;77.50;;;;;;5052412;28;20266;-70
2020/12/27 09:03:48;;;;;;;;;;;5.30;77.30;;;;;;5052843;28;19928;-70
2020/12/27 09:06:15;;;;;;;;;;;5.30;77.60;;;;;;5052101;28;19963;-70
2020/12/27 09:08:41;;;;;;;;;;;5.30;77.00;;;;;;5052909;28;20398;-69
2020/12/27 09:11:08;;;;;;;;;;;5.40;77.30;;;;;;5052378;28;19939;-70
2020/12/27 09:13:38;;;;;;;;;;;5.50;76.90;;;;;;5052882;28;19925;-69
2020/12/27 09:16:04;;;;;;;;;;;5.50;76.70;;;;;;5052639;28;20386;-70
2020/12/27 09:18:31;;;;;;;;;;;5.50;76.40;;;;;;5052183;28;19925;-70
2020/12/27 09:20:58;;;;;;;;;;;5.60;75.90;;;;;;5052201;28;20252;-70
2020/12/27 09:23:25;;;;;;;;;;;5.60;76.10;;;;;;5052101;28;19932;-69
2020/12/27 09:26:03;;;;;;;;;;;5.50;75.70;;;;;;5052153;28;19925;-70
2020/12/27 09:28:31;;;;;;;;;;;5.50;75.40;;;;;;5052381;28;19933;-70
2020/12/27 09:31:01;;;;;;;;;;;5.50;75.70;;;;;;5052587;28;20388;-70
2020/12/27 09:33:27;;;;;;;;;;;5.50;75.30;;;;;;5052119;28;20009;-70
2020/12/27 09:35:54;;;;;;;;;;;5.40;75.20;;;;;;5052991;28;19974;-70
2020/12/27 09:38:21;;;;;;;;;;;5.30;75.00;;;;;;5055967;28;19925;-70
2020/12/27 09:41:00;;;;;;;;;;;5.30;75.60;;;;;;5056172;28;20362;-70
2020/12/27 09:43:27;;;;;;;;;;;5.30;76.40;;;;;;5055770;28;19929;-70
2020/12/27 09:45:53;;;;;;;;;;;5.40;76.00;;;;;;5056139;28;19931;-70
2020/12/27 09:48:19;;;;;;;;;;;5.30;75.40;;;;;;5055602;28;19925;-69
2020/12/27 09:50:45;;;;;;;;;;;5.40;76.00;;;;;;5055826;28;20023;-70
2020/12/27 09:53:18;;;;;;;;;;;5.40;75.80;;;;;;5055896;28;19925;-70
2020/12/27 09:55:44;;;;;;;;;;;5.40;75.70;;;;;;5055911;28;19924;-70
2020/12/27 09:58:12;;;;;;;;;;;5.50;75.80;;;;;;5055668;28;19947;-70
2020/12/27 10:00:39;;;;;;;;;;;5.60;75.50;;;;;;5056318;28;19925;-70
2020/12/27 10:03:05;;;;;;;;;;;5.70;75.60;;;;;;5055770;28;19990;-69
2020/12/27 10:05:31;;;;;;;;;;;5.70;75.20;;;;;;5055162;28;19924;-69
2020/12/27 10:07:57;;;;;;;;;;;5.80;75.40;;;;;;5055847;28;19929;-69
2020/12/27 10:10:24;;;;;;;;;;;5.80;74.50;;;;;;5055243;28;20275;-69
2020/12/27 10:12:50;;;;;;;;;;;5.80;74.10;;;;;;5055732;28;19931;-69
2020/12/27 10:15:17;;;;;;;;;;;5.70;73.60;;;;;;5055311;28;19925;-70
2020/12/27 10:17:43;;;;;;;;;;;5.70;74.30;;;;;;5055452;28;19986;-69
2020/12/27 10:20:10;;;;;;;;;;;5.70;74.60;;;;;;5055387;28;19933;-70
2020/12/27 10:22:37;;;;;;;;;;;5.80;74.50;;;;;;5055190;28;20714;-70
2020/12/27 10:25:03;;;;;;;;;;;5.70;73.40;;;;;;5055296;28;19925;-70
2020/12/27 10:27:32;;;;;;;;;;;5.70;74.10;;;;;;5055174;28;19925;-70
2020/12/27 10:29:59;;;;;;;;;;;5.70;74.20;;;;;;5055242;28;19925;-70
2020/12/27 10:32:26;;;;;;;;;;;5.70;73.70;;;;;;5054729;28;19932;-70
2020/12/27 10:34:52;;;;;;;;;;;5.70;73.60;;;;;;5055371;28;20012;-69
2020/12/27 10:37:19;;;;;;;;;;;5.80;73.00;;;;;;5054631;28;19925;-69
2020/12/27 10:39:45;;;;;;;;;;;5.80;72.80;;;;;;5055057;28;20004;-70
2020/12/27 10:42:11;;;;;;;;;;;5.80;72.90;;;;;;5055300;28;19935;-69
2020/12/27 10:44:37;;;;;;;;;;;5.80;72.70;;;;;;5054523;28;20351;-70
2020/12/27 10:47:06;;;;;;;;;;;5.80;72.80;;;;;;5054766;28;19935;-69
2020/12/27 10:49:33;;;;;;;;;;;5.80;72.90;;;;;;5054294;28;20355;-70
2020/12/27 10:52:00;;;;;;;;;;;5.70;72.30;;;;;;5054922;28;19925;-70
2020/12/27 10:54:26;;;;;;;;;;;5.80;72.60;;;;;;5054635;28;19933;-70
2020/12/27 10:56:52;;;;;;;;;;;5.70;72.50;;;;;;5054811;28;19924;-69
2020/12/27 10:59:18;;;;;;;;;;;5.70;72.20;;;;;;5054330;28;19928;-70
2020/12/27 11:01:46;;;;;;;;;;;5.80;72.50;;;;;;5054747;28;19986;-70
2020/12/27 11:04:12;;;;;;;;;;;5.80;71.60;;;;;;5054681;28;19982;-70
2020/12/27 11:06:39;;;;;;;;;;;5.80;71.90;;;;;;5054021;28;19929;-69
2020/12/27 11:09:05;;;;;;;;;;;5.80;71.30;;;;;;5054592;28;19925;-69
2020/12/27 11:11:32;;;;;;;;;;;5.70;71.10;;;;;;5054177;28;20154;-70
2020/12/27 11:13:58;;;;;;;;;;;5.70;71.10;;;;;;5054422;28;19925;-70
2020/12/27 11:16:24;;;;;;;;;;;5.80;71.10;;;;;;5054011;28;19925;-70
2020/12/27 11:18:50;;;;;;;;;;;5.90;70.70;;;;;;5054260;28;20473;-69
2020/12/27 11:21:17;;;;;;;;;;;5.90;70.60;;;;;;5053688;28;19935;-70
2020/12/27 11:23:44;;;;;;;;;;;6.00;70.10;;;;;;5054481;28;19929;-69
2020/12/27 11:26:10;;;;;;;;;;;6.00;70.10;;;;;;5054277;28;19935;-71
2020/12/27 11:28:36;;;;;;;;;;;6.00;70.20;;;;;;5053868;28;20312;-70
2020/12/27 11:31:03;;;;;;;;;;;6.00;69.90;;;;;;5053955;28;19925;-70
2020/12/27 11:33:29;;;;;;;;;;;6.10;69.30;;;;;;5053533;28;19925;-69
2020/12/27 11:35:55;;;;;;;;;;;6.10;68.90;;;;;;5053947;28;20396;-69
2020/12/27 11:38:21;;;;;;;;;;;6.00;68.60;;;;;;5053466;28;19929;-70
2020/12/27 11:40:48;;;;;;;;;;;6.00;68.80;;;;;;5053900;28;19935;-69
2020/12/27 11:43:14;;;;;;;;;;;6.00;69.20;;;;;;5053733;28;20154;-70
2020/12/27 11:45:41;;;;;;;;;;;6.00;68.60;;;;;;5053223;28;19933;-69
2020/12/27 11:48:07;;;;;;;;;;;6.00;68.70;;;;;;5053775;28;20011;-70
2020/12/27 11:50:33;;;;;;;;;;;6.10;68.60;;;;;;5053038;28;20012;-70
2020/12/27 11:52:59;;;;;;;;;;;6.10;67.80;;;;;;5053710;28;19935;-71
2020/12/27 11:55:25;;;;;;;;;;;6.10;68.20;;;;;;5049287;28;20275;-69
2020/12/27 11:57:53;;;;;;;;;;;6.00;67.80;;;;;;5047505;28;19932;-70
2020/12/27 12:00:19;;;;;;;;;;;6.00;67.90;;;;;;5051706;28;20262;-70
2020/12/27 12:02:47;;;;;;;;;;;6.00;67.80;;;;;;5052142;28;20335;-70
2020/12/27 12:05:14;;;;;;;;;;;5.90;67.60;;;;;;5052386;28;19925;-70
2020/12/27 12:07:42;;;;;;;;;;;5.90;67.30;;;;;;5052218;28;19975;-69
2020/12/27 12:10:09;;;;;;;;;;;5.90;67.60;;;;;;5052683;28;19933;-70
2020/12/27 12:12:35;;;;;;;;;;;6.00;68.20;;;;;;5052059;28;20592;-70
2020/12/27 12:15:02;;;;;;;;;;;6.10;67.50;;;;;;5053104;28;19947;-70
2020/12/27 12:17:28;;;;;;;;;;;6.10;67.10;;;;;;5052856;28;19935;-70
2020/12/27 12:19:55;;;;;;;;;;;6.20;68.00;;;;;;5052872;28;19925;-70
2020/12/27 12:22:21;;;;;;;;;;;6.30;66.00;;;;;;5052942;28;19924;-69
2020/12/27 12:24:48;;;;;;;;;;;6.30;66.10;;;;;;5052470;28;20210;-70
2020/12/27 12:27:15;;;;;;;;;;;6.40;65.20;;;;;;5053028;28;19925;-70
2020/12/27 12:29:41;;;;;;;;;;;6.40;64.30;;;;;;5052744;28;20374;-69
2020/12/27 12:32:08;;;;;;;;;;;6.40;64.40;;;;;;5051989;28;20374;-69
2020/12/27 12:34:40;;;;;;;;;;;6.50;64.40;;;;;;5052671;28;20407;-69
2020/12/27 12:37:17;;;;;;;;;;;;;;;;;;;;;
2020/12/27 12:39:46;;;;;;;;;;;6.60;62.60;;;;;;5052134;28;19925;-69
2020/12/27 12:42:14;;;;;;;;;;;6.60;61.40;;;;;;5051039;28;19928;-69
2020/12/27 12:44:40;;;;;;;;;;;6.60;60.40;;;;;;5042648;28;20325;-69
2020/12/27 12:47:07;;;;;;;;;;;6.60;60.50;;;;;;5045674;28;19925;-69
2020/12/27 12:49:33;;;;;;;;;;;6.70;60.20;;;;;;5035025;28;19974;-69
2020/12/27 12:52:00;;;;;;;;;;;6.70;59.90;;;;;;5052987;28;19962;-69
2020/12/27 12:54:26;;;;;;;;;;;6.60;59.60;;;;;;5052497;28;20240;-69
2020/12/27 12:56:53;;;;;;;;;;;6.60;60.70;;;;;;5052668;28;19935;-69
2020/12/27 12:59:19;;;;;;;;;;;6.60;61.30;;;;;;5050702;28;19965;-69
2020/12/27 13:01:49;;;;;;;;;;;6.50;61.10;;;;;;5034345;28;19940;-69
2020/12/27 13:04:16;;;;;;;;;;;6.50;61.50;;;;;;5052475;28;19943;-68
2020/12/27 13:06:45;;;;;;;;;;;6.60;62.60;;;;;;5052301;28;19935;-68
2020/12/27 13:09:12;;;;;;;;;;;6.50;62.30;;;;;;5052698;28;20347;-69
2020/12/27 13:11:38;;;;;;;;;;;6.50;62.50;;;;;;5054163;28;19936;-68
2020/12/27 13:14:05;;;;;;;;;;;6.60;62.90;;;;;;5056907;28;19925;-71
2020/12/27 13:16:31;;;;;;;;;;;6.60;62.20;;;;;;5056107;28;20011;-70
2020/12/27 13:18:57;;;;;;;;;;;6.70;62.00;;;;;;5056569;28;19935;-69
2020/12/27 13:21:24;;;;;;;;;;;6.60;61.80;;;;;;5056683;28;19931;-70
2020/12/27 13:23:50;;;;;;;;;;;6.70;61.80;;;;;;5056174;28;20671;-70
2020/12/27 13:26:17;;;;;;;;;;;6.60;61.40;;;;;;5056111;28;20020;-69
2020/12/27 13:28:43;;;;;;;;;;;6.70;61.80;;;;;;5056020;28;19935;-70
2020/12/27 13:31:09;;;;;;;;;;;6.60;61.10;;;;;;5056317;28;19924;-70
2020/12/27 13:33:36;;;;;;;;;;;6.50;59.90;;;;;;5055923;28;20371;-70
2020/12/27 13:36:02;;;;;;;;;;;6.50;60.00;;;;;;5056173;28;19924;-69
2020/12/27 13:38:29;;;;;;;;;;;6.40;60.00;;;;;;5055883;28;19925;-69
2020/12/27 13:40:55;;;;;;;;;;;6.40;60.30;;;;;;5056307;28;19974;-69
2020/12/27 13:43:22;;;;;;;;;;;6.40;60.20;;;;;;5050015;28;20024;-71
2020/12/27 13:45:48;;;;;;;;;;;6.30;59.50;;;;;;5035626;28;20294;-69
2020/12/27 13:48:14;;;;;;;;;;;6.30;59.80;;;;;;5036307;28;19935;-69
2020/12/27 13:50:40;;;;;;;;;;;6.30;59.50;;;;;;5046709;28;19935;-69
2020/12/27 13:53:07;;;;;;;;;;;6.20;59.40;;;;;;5056100;28;20381;-69
2020/12/27 13:55:34;;;;;;;;;;;6.20;59.80;;;;;;5048241;28;20015;-69
2020/12/27 13:58:00;;;;;;;;;;;6.20;59.50;;;;;;5055094;28;19924;-69
2020/12/27 14:00:28;;;;;;;;;;;6.20;59.80;;;;;;5055549;28;20016;-69
2020/12/27 14:02:54;;;;;;;;;;;6.00;59.70;;;;;;5055021;28;20670;-69
2020/12/27 14:05:21;;;;;;;;;;;6.00;60.20;;;;;;5052306;28;19968;-69
2020/12/27 14:07:47;;;;;;;;;;;6.00;60.20;;;;;;5054632;28;19929;-69
2020/12/27 14:10:14;;;;;;;;;;;5.90;59.70;;;;;;5050051;28;20022;-69
2020/12/27 14:12:41;;;;;;;;;;;5.90;60.50;;;;;;5054674;28;19940;-69
2020/12/27 14:15:07;;;;;;;;;;;5.90;60.60;;;;;;5055364;28;19939;-69
2020/12/27 14:17:34;;;;;;;;;;;6.00;60.20;;;;;;5054444;28;20019;-70
2020/12/27 14:20:00;;;;;;;;;;;6.00;60.50;;;;;;5052533;28;19933;-69
2020/12/27 14:22:26;;;;;;;;;;;6.00;59.60;;;;;;5049619;28;19925;-69
2020/12/27 14:24:53;;;;;;;;;;;5.90;59.00;;;;;;5054221;28;20019;-69
2020/12/27 14:27:20;;;;;;;;;;;5.90;59.20;;;;;;5054110;28;19955;-69
2020/12/27 14:29:47;;;;;;;;;;;5.90;59.70;;;;;;5053605;28;19932;-68
2020/12/27 14:32:13;;;;;;;;;;;5.90;58.90;;;;;;5054566;28;19982;-68